createdAt,value
2023-02-02T00:01:01.971Z,96274.19
2023-02-02T00:03:28.768Z,96234.19
2023-02-02T00:05:55.426Z,96189.25
2023-02-02T00:08:23.155Z,96301.75
2023-02-02T00:10:50.650Z,96272.38
2023-02-02T00:13:17.813Z,96289.28
2023-02-02T00:15:44.482Z,96300.47
2023-02-02T00:18:11.129Z,96248.75
2023-02-02T00:20:37.879Z,96258.38
2023-02-02T00:23:04.509Z,96219.16
2023-02-02T00:25:31.399Z,96181.47
2023-02-02T00:27:58.026Z,96269.03
2023-02-02T00:30:24.770Z,96293.72
2023-02-02T00:32:53.095Z,96266.41
2023-02-02T00:35:20.370Z,96269.81
2023-02-02T00:37:47.149Z,96294.22
2023-02-02T00:40:13.981Z,96245.88
2023-02-02T00:42:40.822Z,96242.78
2023-02-02T00:45:17.040Z,96250.56
2023-02-02T00:47:47.652Z,96255.75
2023-02-02T00:50:19.845Z,96279.16
2023-02-02T00:52:48.004Z,96289.56
2023-02-02T00:55:16.446Z,96286.16
2023-02-02T00:57:44.384Z,96207.97
2023-02-02T01:00:17.897Z,96286.69
2023-02-02T01:02:44.790Z,96292.94
2023-02-02T01:05:12.798Z,96290.34
2023-02-02T01:07:40.385Z,96243.81
2023-02-02T01:10:09.664Z,96284.88
2023-02-02T01:12:36.490Z,96260.41
2023-02-02T01:15:03.635Z,96283.03
2023-02-02T01:17:31.856Z,96260.91
2023-02-02T01:19:59.172Z,96248.72
2023-02-02T01:22:26.328Z,96299.38
2023-02-02T01:24:53.039Z,96301.97
2023-02-02T01:27:19.685Z,96286.66
2023-02-02T01:29:46.649Z,96270.25
2023-02-02T01:32:13.496Z,96279.38
2023-02-02T01:34:41.858Z,96268.69
2023-02-02T01:37:09.392Z,96299.38
2023-02-02T01:39:36.885Z,96289.47
2023-02-02T01:42:11.061Z,96293.13
2023-02-02T01:44:53.289Z,96311.28
2023-02-02T01:47:24.975Z,96300.13
2023-02-02T01:49:52.956Z,96265.00
2023-02-02T01:52:24.175Z,96235.13
2023-02-02T01:54:55.085Z,96310.81
2023-02-02T01:57:25.383Z,96331.63
2023-02-02T01:59:55.341Z,96293.66
2023-02-02T02:02:24.822Z,96312.59
2023-02-02T02:04:51.723Z,96282.72
2023-02-02T02:07:18.598Z,96287.94
2023-02-02T02:09:45.449Z,96230.69
2023-02-02T02:12:14.550Z,96290.53
2023-02-02T02:15:05.279Z,96309.50
2023-02-02T02:17:48.813Z,96310.56
2023-02-02T02:21:02.095Z,96282.44
2023-02-02T02:24:17.967Z,96294.97
2023-02-02T02:27:19.988Z,96289.53
2023-02-02T02:30:09.228Z,96232.59
2023-02-02T02:32:41.494Z,96239.13
2023-02-02T02:35:27.960Z,96290.56
2023-02-02T02:38:04.339Z,96243.75
2023-02-02T02:40:50.730Z,96210.47
2023-02-02T02:43:27.159Z,96261.41
2023-02-02T02:45:55.037Z,96258.56
2023-02-02T02:48:22.207Z,96281.19
2023-02-02T02:50:50.130Z,96269.78
2023-02-02T02:53:21.716Z,96286.66
2023-02-02T02:55:59.934Z,96286.97
2023-02-02T02:58:44.927Z,96310.06
2023-02-02T03:01:38.454Z,96309.03
2023-02-02T03:04:22.310Z,96330.59
2023-02-02T03:06:57.638Z,96329.03
2023-02-02T03:09:32.840Z,96228.16
2023-02-02T03:11:59.849Z,96290.56
2023-02-02T03:14:26.882Z,96298.63
2023-02-02T03:16:53.887Z,96300.72
2023-02-02T03:19:21.241Z,96326.41
2023-02-02T03:21:47.900Z,96280.69
2023-02-02T03:24:14.545Z,96295.75
2023-02-02T03:26:41.315Z,96293.69
2023-02-02T03:29:08.112Z,96303.31
2023-02-02T03:31:34.810Z,96302.53
2023-02-02T03:34:01.473Z,96338.16
2023-02-02T03:36:28.130Z,96320.72
2023-02-02T03:38:54.790Z,96277.81
2023-02-02T03:41:21.417Z,96307.16
2023-02-02T03:43:48.065Z,96319.44
2023-02-02T03:46:15.080Z,96286.91
2023-02-02T03:48:41.734Z,96282.25
2023-02-02T03:51:11.717Z,96360.78
2023-02-02T03:53:47.414Z,96335.03
2023-02-02T03:56:14.840Z,96340.50
2023-02-02T03:58:41.508Z,96351.41
2023-02-02T04:01:12.079Z,96365.44
2023-02-02T04:03:38.831Z,96342.50
2023-02-02T04:06:05.660Z,96362.56
2023-02-02T04:08:32.440Z,96319.13
2023-02-02T04:10:59.663Z,96355.84
2023-02-02T04:13:26.369Z,96356.84
2023-02-02T04:16:02.272Z,96314.97
2023-02-02T04:18:29.450Z,96338.41
2023-02-02T04:21:00.290Z,96348.75
2023-02-02T04:23:28.504Z,96334.47
2023-02-02T04:25:55.473Z,96329.50
2023-02-02T04:28:23.843Z,96373.25
2023-02-02T04:30:51.583Z,96356.56
2023-02-02T04:33:18.647Z,96390.91
2023-02-02T04:35:45.558Z,96387.50
2023-02-02T04:38:12.781Z,96344.59
2023-02-02T04:40:44.531Z,96389.88
2023-02-02T04:43:12.072Z,96376.09
2023-02-02T04:45:38.824Z,96369.03
2023-02-02T04:48:08.305Z,96349.50
2023-02-02T04:50:34.915Z,96337.56
2023-02-02T04:53:01.588Z,96367.22
2023-02-02T04:55:28.149Z,96384.13
2023-02-02T04:57:54.872Z,96382.31
2023-02-02T05:00:21.591Z,96396.84
2023-02-02T05:02:48.245Z,96378.16
2023-02-02T05:05:15.191Z,96388.53
2023-02-02T05:07:41.892Z,96377.38
2023-02-02T05:10:09.890Z,96397.16
2023-02-02T05:12:36.593Z,96351.59
2023-02-02T05:15:05.596Z,96411.19
2023-02-02T05:17:33.248Z,96408.28
2023-02-02T05:20:00.247Z,96371.63
2023-02-02T05:22:27.066Z,96415.34
2023-02-02T05:24:53.745Z,96391.94
2023-02-02T05:27:20.495Z,96410.13
2023-02-02T05:29:48.336Z,96428.59
2023-02-02T05:32:15.112Z,96391.84
2023-02-02T05:34:41.807Z,96401.47
2023-02-02T05:37:08.444Z,96412.94
2023-02-02T05:39:35.090Z,96417.13
2023-02-02T05:42:01.675Z,96417.38
2023-02-02T05:44:28.364Z,96385.13
2023-02-02T05:46:55.000Z,96426.22
2023-02-02T05:49:21.653Z,96413.19
2023-02-02T05:51:51.980Z,96416.34
2023-02-02T05:54:20.525Z,96397.38
2023-02-02T05:56:49.334Z,96377.81
2023-02-02T05:59:17.519Z,96441.06
2023-02-02T06:01:45.355Z,96416.09
2023-02-02T06:04:12.033Z,96430.16
2023-02-02T06:06:39.152Z,96440.59
2023-02-02T06:09:07.021Z,96447.09
2023-02-02T06:11:34.628Z,96443.97
2023-02-02T06:14:01.908Z,96440.56
2023-02-02T06:16:28.554Z,96430.91
2023-02-02T06:18:55.340Z,96457.75
2023-02-02T06:21:24.450Z,96428.56
2023-02-02T06:23:51.865Z,96429.13
2023-02-02T06:26:19.168Z,96462.97
2023-02-02T06:28:50.295Z,96448.91
2023-02-02T06:31:19.467Z,96473.63
2023-02-02T06:33:48.275Z,96466.38
2023-02-02T06:36:15.348Z,96476.00
2023-02-02T06:38:41.979Z,96440.09
2023-02-02T06:41:08.611Z,96408.31
2023-02-02T06:43:35.213Z,96427.31
2023-02-02T06:46:02.120Z,96416.66
2023-02-02T06:48:28.754Z,96434.38
2023-02-02T06:51:01.082Z,96451.53
2023-02-02T06:53:28.044Z,96427.63
2023-02-02T06:56:05.467Z,96447.38
2023-02-02T06:58:33.849Z,96393.50
2023-02-02T07:01:09.435Z,96445.06
2023-02-02T07:03:36.767Z,96477.34
2023-02-02T07:06:17.954Z,96452.59
2023-02-02T07:08:45.051Z,96478.88
2023-02-02T07:11:16.594Z,96466.38
2023-02-02T07:13:45.580Z,96474.97
2023-02-02T07:16:13.097Z,96457.00
2023-02-02T07:18:40.186Z,96480.19
2023-02-02T07:21:07.178Z,96483.56
2023-02-02T07:23:34.316Z,96490.31
2023-02-02T07:26:06.325Z,96469.47
2023-02-02T07:28:33.964Z,96408.59
2023-02-02T07:31:01.374Z,96483.28
2023-02-02T07:33:28.050Z,96495.75
2023-02-02T07:35:54.734Z,96435.34
2023-02-02T07:38:21.516Z,96497.81
2023-02-02T07:40:48.237Z,96502.25
2023-02-02T07:43:14.834Z,96430.63
2023-02-02T07:45:41.913Z,96489.50
2023-02-02T07:48:08.734Z,96497.81
2023-02-02T07:50:35.384Z,96449.13
2023-02-02T07:53:02.036Z,96492.09
2023-02-02T07:55:29.066Z,96466.06
2023-02-02T07:57:58.900Z,96485.59
2023-02-02T08:00:26.493Z,96425.19
2023-02-02T08:02:53.451Z,96497.59
2023-02-02T08:05:21.942Z,96477.75
2023-02-02T08:07:48.631Z,96472.84
2023-02-02T08:10:15.425Z,96475.44
2023-02-02T08:12:42.055Z,96482.72
2023-02-02T08:15:09.387Z,96509.81
2023-02-02T08:17:37.390Z,96511.88
2023-02-02T08:20:04.358Z,96499.63
2023-02-02T08:22:31.472Z,96511.66
2023-02-02T08:24:58.151Z,96511.38
2023-02-02T08:27:24.831Z,96493.56
2023-02-02T08:29:51.496Z,96525.66
2023-02-02T08:32:18.121Z,96522.28
2023-02-02T08:34:44.799Z,96524.13
2023-02-02T08:37:11.385Z,96518.63
2023-02-02T08:39:38.056Z,96288.47
2023-02-02T08:42:04.713Z,96486.56
2023-02-02T08:44:44.921Z,96448.25
2023-02-02T08:47:17.867Z,96482.81
2023-02-02T08:49:45.091Z,96510.16
2023-02-02T08:52:11.770Z,96511.41
2023-02-02T08:54:38.426Z,96474.97
2023-02-02T08:57:05.085Z,96528.66
2023-02-02T08:59:31.692Z,96492.88
2023-02-02T09:01:58.360Z,96492.63
2023-02-02T09:04:25.077Z,96493.94
2023-02-02T09:06:51.698Z,96473.84
2023-02-02T09:09:18.322Z,96470.47
2023-02-02T09:11:44.907Z,96490.69
2023-02-02T09:14:13.826Z,96538.94
2023-02-02T09:16:40.600Z,96486.81
2023-02-02T09:19:07.542Z,96538.94
2023-02-02T09:21:37.066Z,96546.25
2023-02-02T09:24:12.637Z,96533.97
2023-02-02T09:26:40.472Z,96510.78
2023-02-02T09:29:11.093Z,96518.31
2023-02-02T09:31:38.095Z,96568.63
2023-02-02T09:34:15.623Z,96560.84
2023-02-02T09:36:43.359Z,96565.44
2023-02-02T09:39:12.830Z,96544.44
2023-02-02T09:41:55.732Z,96565.22
2023-02-02T09:44:37.544Z,96563.22
2023-02-02T09:47:20.280Z,96526.47
2023-02-02T09:50:05.966Z,96576.50
2023-02-02T09:52:44.320Z,96573.66
2023-02-02T09:55:25.171Z,96574.44
2023-02-02T09:58:30.898Z,96578.38
2023-02-02T10:01:03.382Z,96580.19
2023-02-02T10:04:02.421Z,96589.78
2023-02-02T10:06:40.829Z,96573.34
2023-02-02T10:09:10.519Z,96591.56
2023-02-02T10:12:04.883Z,96585.78
2023-02-02T10:14:38.862Z,96599.09
2023-02-02T10:17:25.435Z,96544.81
2023-02-02T10:19:58.260Z,96593.59
2023-02-02T10:22:29.518Z,96571.94
2023-02-02T10:24:58.387Z,96546.59
2023-02-02T10:27:39.029Z,96543.81
2023-02-02T10:30:29.913Z,96579.97
2023-02-02T10:33:05.979Z,96585.25
2023-02-02T10:35:49.877Z,96545.03
2023-02-02T10:38:19.897Z,96584.19
2023-02-02T10:41:18.779Z,96589.69
2023-02-02T10:44:09.771Z,96587.91
2023-02-02T10:46:41.071Z,96490.44
2023-02-02T10:49:53.756Z,96579.59
2023-02-02T10:52:31.248Z,96582.19
2023-02-02T10:55:09.956Z,96583.75
2023-02-02T10:57:58.156Z,96559.72
2023-02-02T11:00:31.211Z,96583.75
2023-02-02T11:02:58.987Z,96561.34
2023-02-02T11:05:46.877Z,96507.63
2023-02-02T11:08:41.306Z,96579.31
2023-02-02T11:11:24.404Z,96553.53
2023-02-02T11:13:59.268Z,96562.91
2023-02-02T11:16:42.260Z,96545.44
2023-02-02T11:19:31.411Z,96576.75
2023-02-02T11:22:01.002Z,96581.75
2023-02-02T11:24:28.862Z,96562.56
2023-02-02T11:26:59.674Z,96584.56
2023-02-02T11:29:38.427Z,96587.16
2023-02-02T11:32:29.982Z,96591.03
2023-02-02T11:35:02.745Z,96587.66
2023-02-02T11:37:31.013Z,96591.03
2023-02-02T11:40:19.010Z,96585.09
2023-02-02T11:42:48.499Z,96592.13
2023-02-02T11:45:24.589Z,96577.78
2023-02-02T11:47:51.964Z,96483.91
2023-02-02T11:50:26.995Z,96572.06
2023-02-02T11:52:54.611Z,96582.97
2023-02-02T11:55:28.181Z,96594.72
2023-02-02T11:58:18.629Z,96603.03
2023-02-02T12:01:03.655Z,96565.19
2023-02-02T12:03:36.916Z,96596.22
2023-02-02T12:06:35.266Z,96599.34
2023-02-02T12:09:09.914Z,96599.34
2023-02-02T12:11:56.621Z,96537.34
2023-02-02T12:14:34.367Z,96609.81
2023-02-02T12:17:18.256Z,96562.91
2023-02-02T12:20:13.120Z,96599.94
2023-02-02T12:23:01.732Z,96599.44
2023-02-02T12:25:34.487Z,96598.56
2023-02-02T12:28:10.479Z,96605.06
2023-02-02T12:30:53.997Z,96520.31
2023-02-02T12:33:50.052Z,96611.88
2023-02-02T12:36:23.341Z,96613.03
2023-02-02T12:39:13.287Z,96615.56
2023-02-02T12:42:14.880Z,96620.22
2023-02-02T12:44:58.938Z,96616.69
2023-02-02T12:47:49.378Z,96605.44
2023-02-02T12:50:25.262Z,96587.78
2023-02-02T12:53:26.484Z,96611.84
2023-02-02T12:56:22.841Z,96620.00
2023-02-02T12:59:03.075Z,96623.88
2023-02-02T13:01:56.215Z,96631.44
2023-02-02T13:04:41.753Z,96635.56
2023-02-02T13:07:27.109Z,96633.22
2023-02-02T13:10:08.346Z,96640.81
2023-02-02T13:12:46.468Z,96630.38
2023-02-02T13:15:18.431Z,96635.88
2023-02-02T13:17:54.153Z,96518.97
2023-02-02T13:20:21.533Z,96644.72
2023-02-02T13:22:54.333Z,96489.78
2023-02-02T13:25:33.657Z,96637.75
2023-02-02T13:28:02.243Z,96632.72
2023-02-02T13:30:34.174Z,96652.00
2023-02-02T13:33:15.927Z,96635.03
2023-02-02T13:35:52.773Z,96616.44
2023-02-02T13:38:28.877Z,96607.75
2023-02-02T13:40:59.277Z,96655.38
2023-02-02T13:43:26.200Z,96670.41
2023-02-02T13:46:14.768Z,96676.16
2023-02-02T13:48:41.440Z,96665.69
2023-02-02T13:51:34.180Z,96620.22
2023-02-02T13:54:19.521Z,96680.19
2023-02-02T13:57:24.500Z,96647.06
2023-02-02T14:00:18.703Z,96678.78
2023-02-02T14:02:56.865Z,96684.66
2023-02-02T14:05:46.450Z,96599.56
2023-02-02T14:08:19.607Z,96697.38
2023-02-02T14:10:52.311Z,96704.06
2023-02-02T14:14:08.055Z,96698.44
2023-02-02T14:16:37.763Z,96699.19
2023-02-02T14:19:06.615Z,96612.47
2023-02-02T14:21:36.201Z,96707.44
2023-02-02T14:24:37.139Z,96714.28
2023-02-02T14:27:09.972Z,96717.16
2023-02-02T14:29:57.097Z,96717.59
2023-02-02T14:32:27.995Z,96725.38
2023-02-02T14:34:55.641Z,96725.34
2023-02-02T14:37:58.568Z,96636.44
2023-02-02T14:40:59.121Z,96740.69
2023-02-02T14:43:50.912Z,96739.66
2023-02-02T14:46:33.674Z,96668.91
2023-02-02T14:49:00.430Z,96738.00
2023-02-02T14:51:30.784Z,96730.16
2023-02-02T14:54:01.398Z,96659.69
2023-02-02T14:57:18.146Z,96725.47
2023-02-02T14:59:46.837Z,96708.56
2023-02-02T15:02:20.191Z,96760.19
2023-02-02T15:04:49.849Z,96760.81
2023-02-02T15:07:22.746Z,96769.91
2023-02-02T15:09:56.414Z,96687.47
2023-02-02T15:12:29.580Z,96748.97
2023-02-02T15:15:20.210Z,96776.75
2023-02-02T15:18:00.897Z,96736.09
2023-02-02T15:20:27.709Z,96787.03
2023-02-02T15:23:12.839Z,96790.38
2023-02-02T15:25:48.527Z,96795.69
2023-02-02T15:28:41.574Z,96766.75
2023-02-02T15:31:11.472Z,96794.25
2023-02-02T15:33:50.848Z,96796.34
2023-02-02T15:36:48.378Z,96801.97
2023-02-02T15:39:36.721Z,96773.38
2023-02-02T15:42:34.095Z,96823.56
2023-02-02T15:45:00.996Z,96789.16
2023-02-02T15:47:35.553Z,96793.88
2023-02-02T15:50:15.589Z,96820.13
2023-02-02T15:52:48.464Z,96837.47
2023-02-02T15:55:44.597Z,96806.63
2023-02-02T15:58:32.801Z,96855.34
2023-02-02T16:01:06.463Z,96828.31
2023-02-02T16:03:42.007Z,96843.50
2023-02-02T16:06:09.541Z,96772.91
2023-02-02T16:08:41.378Z,96817.19
2023-02-02T16:11:21.441Z,96865.16
2023-02-02T16:13:59.510Z,96833.25
2023-02-02T16:16:31.570Z,96872.06
2023-02-02T16:19:24.689Z,96875.16
2023-02-02T16:22:04.312Z,96842.13
2023-02-02T16:24:34.748Z,96823.81
2023-02-02T16:27:06.494Z,96750.34
2023-02-02T16:29:34.156Z,96829.09
2023-02-02T16:32:01.333Z,96707.94
2023-02-02T16:34:48.883Z,96871.84
2023-02-02T16:37:32.032Z,96891.84
2023-02-02T16:40:27.966Z,96906.63
2023-02-02T16:43:26.728Z,96879.63
2023-02-02T16:45:57.020Z,96893.34
2023-02-02T16:48:29.864Z,96918.28
2023-02-02T16:51:16.979Z,96928.09
2023-02-02T16:53:47.836Z,96925.78
2023-02-02T16:56:46.022Z,96910.31
2023-02-02T16:59:18.328Z,96931.81
2023-02-02T17:01:50.121Z,96925.38
2023-02-02T17:04:28.545Z,96937.22
2023-02-02T17:07:05.407Z,96932.41
2023-02-02T17:09:36.470Z,96925.81
2023-02-02T17:12:31.608Z,96943.31
2023-02-02T17:15:05.128Z,96953.53
2023-02-02T17:17:32.028Z,96911.22
2023-02-02T17:19:58.695Z,96892.06
2023-02-02T17:22:27.768Z,96966.38
2023-02-02T17:24:54.496Z,96925.53
2023-02-02T17:27:34.116Z,96976.00
2023-02-02T17:30:05.321Z,96972.66
2023-02-02T17:32:32.267Z,96921.75
2023-02-02T17:34:58.952Z,96974.81
2023-02-02T17:37:25.839Z,96906.16
2023-02-02T17:39:52.883Z,96974.63
2023-02-02T17:42:19.436Z,96993.94
2023-02-02T17:44:47.032Z,96993.00
2023-02-02T17:47:13.998Z,96933.75
2023-02-02T17:49:40.709Z,96907.50
2023-02-02T17:52:07.293Z,97002.84
2023-02-02T17:54:33.931Z,97019.28
2023-02-02T17:57:00.652Z,96974.16
2023-02-02T17:59:27.362Z,97016.00
2023-02-02T18:01:55.242Z,96962.28
2023-02-02T18:04:22.242Z,96974.88
2023-02-02T18:06:49.092Z,96961.50
2023-02-02T18:09:16.234Z,96950.28
2023-02-02T18:11:45.622Z,96985.31
2023-02-02T18:14:14.719Z,96993.03
2023-02-02T18:16:41.374Z,96951.50
2023-02-02T18:19:08.100Z,97020.53
2023-02-02T18:21:34.879Z,96995.78
2023-02-02T18:24:01.522Z,96966.06
2023-02-02T18:26:28.447Z,96991.59
2023-02-02T18:28:55.154Z,96957.91
2023-02-02T18:31:23.897Z,96999.47
2023-02-02T18:33:51.211Z,96985.03
2023-02-02T18:36:20.672Z,97030.22
2023-02-02T18:38:48.821Z,96997.81
2023-02-02T18:41:17.723Z,97036.75
2023-02-02T18:43:45.588Z,97017.78
2023-02-02T18:46:14.763Z,96968.75
2023-02-02T18:48:42.379Z,97042.19
2023-02-02T18:51:16.032Z,97025.91
2023-02-02T18:53:44.605Z,97011.75
2023-02-02T18:56:12.888Z,97014.59
2023-02-02T18:58:40.504Z,97056.28
2023-02-02T19:01:11.759Z,97051.88
2023-02-02T19:03:39.547Z,97025.59
2023-02-02T19:06:25.682Z,97060.75
2023-02-02T19:08:52.775Z,97039.25
2023-02-02T19:11:22.858Z,97055.78
2023-02-02T19:13:50.494Z,97032.38
2023-02-02T19:16:22.978Z,97061.22
2023-02-02T19:18:50.273Z,97053.19
2023-02-02T19:21:17.113Z,97022.28
2023-02-02T19:23:46.175Z,97028.56
2023-02-02T19:26:25.334Z,97039.44
2023-02-02T19:28:53.536Z,97052.09
2023-02-02T19:31:20.694Z,97072.66
2023-02-02T19:33:52.230Z,97031.34
2023-02-02T19:36:24.215Z,97042.75
2023-02-02T19:38:58.685Z,97036.22
2023-02-02T19:41:26.202Z,97047.72
2023-02-02T19:43:58.911Z,97053.22
2023-02-02T19:46:30.290Z,97063.22
2023-02-02T19:49:16.515Z,96976.44
2023-02-02T19:51:46.301Z,97073.44
2023-02-02T19:54:35.116Z,97047.00
2023-02-02T19:57:16.932Z,97070.78
2023-02-02T19:59:46.408Z,97014.19
2023-02-02T20:02:36.804Z,97057.53
2023-02-02T20:05:24.234Z,97064.84
2023-02-02T20:08:01.415Z,97037.78
2023-02-02T20:10:39.519Z,97037.00
2023-02-02T20:13:34.487Z,97066.19
2023-02-02T20:16:04.325Z,96989.03
2023-02-02T20:18:41.211Z,97068.41
2023-02-02T20:21:19.268Z,97047.72
2023-02-02T20:23:46.602Z,97075.38
2023-02-02T20:26:29.968Z,97064.63
2023-02-02T20:28:59.050Z,97065.72
2023-02-02T20:31:35.464Z,97062.66
2023-02-02T20:34:08.035Z,97044.78
2023-02-02T20:36:35.843Z,97063.81
2023-02-02T20:39:36.082Z,97059.13
2023-02-02T20:42:03.639Z,97036.22
2023-02-02T20:44:32.210Z,97073.59
2023-02-02T20:47:00.408Z,97078.63
2023-02-02T20:49:31.967Z,97083.50
2023-02-02T20:52:00.850Z,97085.09
2023-02-02T20:54:28.956Z,97087.59
2023-02-02T20:56:55.854Z,97076.91
2023-02-02T20:59:23.104Z,97052.19
2023-02-02T21:01:50.597Z,97094.28
2023-02-02T21:04:18.456Z,97063.22
2023-02-02T21:06:46.481Z,97040.56
2023-02-02T21:09:13.471Z,97070.94
2023-02-02T21:11:40.523Z,96969.63
2023-02-02T21:14:07.538Z,97050.47
2023-02-02T21:16:34.293Z,97053.59
2023-02-02T21:19:01.391Z,97102.38
2023-02-02T21:21:28.150Z,97009.56
2023-02-02T21:23:56.271Z,97088.72
2023-02-02T21:26:29.806Z,97048.91
2023-02-02T21:28:58.219Z,97100.38
2023-02-02T21:31:25.733Z,97051.81
2023-02-02T21:33:53.325Z,97074.94
2023-02-02T21:36:36.857Z,97089.50
2023-02-02T21:39:28.242Z,97064.00
2023-02-02T21:42:00.882Z,97083.38
2023-02-02T21:44:27.765Z,97050.53
2023-02-02T21:46:54.386Z,97065.63
2023-02-02T21:49:25.361Z,97059.66
2023-02-02T21:51:57.282Z,97080.91
2023-02-02T21:54:33.526Z,97046.06
2023-02-02T21:57:05.563Z,97027.97
2023-02-02T21:59:36.706Z,97052.44
2023-02-02T22:02:29.832Z,97038.03
2023-02-02T22:05:00.168Z,97047.16
2023-02-02T22:07:26.817Z,97050.47
2023-02-02T22:09:54.915Z,97053.78
2023-02-02T22:12:24.090Z,97049.28
2023-02-02T22:14:59.051Z,97054.25
2023-02-02T22:17:39.860Z,97045.28
2023-02-02T22:20:15.504Z,97048.13
2023-02-02T22:22:45.838Z,97017.81
2023-02-02T22:25:18.597Z,97043.78
2023-02-02T22:27:50.082Z,97023.88
2023-02-02T22:30:37.188Z,97039.91
2023-02-02T22:33:06.385Z,97016.63
2023-02-02T22:35:33.941Z,97008.47
2023-02-02T22:38:01.129Z,96994.91
2023-02-02T22:40:28.626Z,96993.69
2023-02-02T22:43:01.016Z,97021.44
2023-02-02T22:45:28.475Z,97005.78
2023-02-02T22:47:55.108Z,97013.19
2023-02-02T22:50:24.987Z,97019.78
2023-02-02T22:52:52.214Z,96974.00
2023-02-02T22:55:19.401Z,97013.66
2023-02-02T22:57:46.564Z,97024.66
2023-02-02T23:00:28.244Z,97021.03
2023-02-02T23:02:56.158Z,97013.34
2023-02-02T23:05:23.905Z,97025.38
2023-02-02T23:07:51.151Z,97033.00
2023-02-02T23:10:24.872Z,97023.41
2023-02-02T23:12:53.971Z,97008.38
2023-02-02T23:15:21.064Z,97001.84
2023-02-02T23:17:47.942Z,96967.72
2023-02-02T23:20:15.844Z,97014.03
2023-02-02T23:22:43.150Z,96959.53
2023-02-02T23:25:10.937Z,97025.69
2023-02-02T23:27:38.213Z,97010.09
2023-02-02T23:30:07.341Z,96983.13
2023-02-02T23:32:34.466Z,96980.84
2023-02-02T23:35:01.185Z,96962.06
2023-02-02T23:37:27.747Z,96968.91
2023-02-02T23:39:54.343Z,96956.09
2023-02-02T23:42:21.016Z,96986.19
2023-02-02T23:44:48.073Z,96953.56
2023-02-02T23:47:14.750Z,96950.44
2023-02-02T23:49:41.455Z,96952.31
2023-02-02T23:52:08.852Z,96978.81
2023-02-02T23:54:36.172Z,96988.25
2023-02-02T23:57:03.554Z,96943.34
2023-02-02T23:59:30.485Z,96991.00
